Brackettville, TX

1:06 AM CDT on November 01, 2014 (GMT -0500)
Unit 38 Fort Clark Springs | Change Station
CLOSE
Current Station
Personal Weather Station
Location: Brackettville, TX
Elevation: 1112 ft
Nearby Weather Stations

Elev 1112 ft 29.29 °N, 100.42 °W | Updated 5 seconds ago

Clear
Clear
47.8 °F
Feels Like 48 °F
N
0.0
Wind Variable Wind from North
Gusts 0.0 mph

Today
High -- | Low -- °F
--% Chance of Precip.
Yesterday
High -- | Low -- °F
Precip. -- in
7:54 AM 6:54 PM
Waxing Gibbous, 63% visible
Pressure 30.26 in
Visibility 10.0 miles
Clouds Clear
Windchill 48 °F
Dew Point 43 °F
Humidity 82%
Rainfall 0.00 in
Snow Depth Not available.
UV 0 out of 12
Pollen 4.70 out of 12
Air Quality Not available.
Flu Activity Not available.
METAR KDLF 010558Z AUTO 08005KT 10SM CLR 12/05 A3028 RMK AO2 SLP246 T01220047 10243 20122 50002 $

More Conditions Fewer Conditions

Pressure 30.26 in
Visibility 10.0 miles
Clouds Clear
Windchill 48 °F
Dew Point 43 °F
Humidity 82%
Rainfall 0.00 in
Snow Depth Not available.
UV 0 out of 12
Pollen 4.70 out of 12
Air Quality Not available.
Flu Activity Not available.
METAR KDLF 010558Z AUTO 08005KT 10SM CLR 12/05 A3028 RMK AO2 SLP246 T01220047 10243 20122 50002 $

More Conditions Fewer Conditions

10-Day Weather Forecast

Almanac

Astronomy

Nov. 01, 2014 Rise Set
Actual Time
Civil Twilight
Nautical Twilight
Astronomical Twilight
Moon
Length of Visible Light
Length of Day
Tomorrow will be .
, % of the Moon is Illuminated

Today's Extremes

State Highs State Lows

Community

WunderPhotos

Upload Photos

1,766,862 photos uploaded!

WunderBlogs® & News

Nearby

Air Quality

  Air Quality AQ Index Pollutant
Not available.

Snow Depth

Station Depth Elevation

Earthquake Activity

City Distance Mag. Time & Date
Minimum magnitude displayed is 2.5.

Coastal Water Temperatures

Place Temperature

Nearby Weather Stations